Time;durP1;ratioP1;P1;durP2;ratioP2;P2;SDS_P1;SDS_P2;PMS_P1;PMS_P2;Temp;Humidity;BMP_temperature;BMP_pressure;BME280_temperature;BME280_humidity;BME280_pressure;Samples;Min_cycle;Max_cycle;Signal;HPM_P1;HPM_P2
2022/08/31 00:04:41;;;;;;;7.05;4.20;;;;;;;;;;5010117;28;20026;-66
2022/08/31 00:07:26;;;;;;;6.60;3.58;;;;;;;;;;5004622;28;20109;-68
2022/08/31 00:10:13;;;;;;;7.15;3.40;;;;;;;;;;5005293;28;20034;-67
2022/08/31 00:12:59;;;;;;;4.90;3.58;;;;;;;;;;5000354;28;20022;-78
2022/08/31 00:15:45;;;;;;;6.03;3.80;;;;;;;;;;4983095;28;20133;-67
2022/08/31 00:18:30;;;;;;;5.57;3.50;;;;;;;;;;4991399;28;20034;-67
2022/08/31 00:21:16;;;;;;;5.65;3.20;;;;;;;;;;5003712;28;20073;-68
2022/08/31 00:24:02;;;;;;;7.75;3.70;;;;;;;;;;4998822;28;20037;-67
2022/08/31 00:26:47;;;;;;;6.90;3.85;;;;;;;;;;4994436;28;20349;-68
2022/08/31 00:29:33;;;;;;;5.28;3.83;;;;;;;;;;5001621;28;20026;-68
2022/08/31 00:32:19;;;;;;;5.30;3.22;;;;;;;;;;5002645;28;20026;-70
2022/08/31 00:35:05;;;;;;;6.20;3.33;;;;;;;;;;5006018;28;20041;-62
2022/08/31 00:37:51;;;;;;;7.47;4.25;;;;;;;;;;5002497;28;20117;-62
2022/08/31 00:40:37;;;;;;;5.10;3.08;;;;;;;;;;4997923;28;20121;-62
2022/08/31 00:43:32;;;;;;;6.40;3.63;;;;;;;;;;5007609;28;20034;-61
2022/08/31 00:46:20;;;;;;;13.32;5.63;;;;;;;;;;5000502;28;20029;-62
2022/08/31 00:49:10;;;;;;;10.77;4.65;;;;;;;;;;5003495;28;20043;-62
2022/08/31 00:52:04;;;;;;;9.85;4.75;;;;;;;;;;5001961;28;20068;-73
2022/08/31 00:54:55;;;;;;;7.97;4.82;;;;;;;;;;5001690;28;20101;-73
2022/08/31 00:57:43;;;;;;;8.35;4.97;;;;;;;;;;5007528;28;20411;-72
2022/08/31 01:00:30;;;;;;;11.27;4.75;;;;;;;;;;5006246;28;20066;-73
2022/08/31 01:03:16;;;;;;;10.43;4.85;;;;;;;;;;5010805;28;20448;-73
2022/08/31 01:06:02;;;;;;;14.82;5.65;;;;;;;;;;5008282;28;20033;-73
2022/08/31 01:08:48;;;;;;;11.18;5.03;;;;;;;;;;5007923;28;20053;-62
2022/08/31 01:11:35;;;;;;;11.05;4.72;;;;;;;;;;5010090;28;20113;-69
2022/08/31 01:14:21;;;;;;;13.30;5.38;;;;;;;;;;5010826;28;20419;-69
2022/08/31 01:17:06;;;;;;;9.27;5.07;;;;;;;;;;5012738;28;20022;-70
2022/08/31 01:19:52;;;;;;;12.15;5.72;;;;;;;;;;5015996;28;20472;-69
2022/08/31 01:22:42;;;;;;;9.45;5.57;;;;;;;;;;5010937;28;20058;-69
2022/08/31 01:25:28;;;;;;;11.95;6.18;;;;;;;;;;5012346;28;20029;-68
2022/08/31 01:28:13;;;;;;;10.82;6.00;;;;;;;;;;5016006;28;20037;-61
2022/08/31 01:31:05;;;;;;;11.95;5.47;;;;;;;;;;5002623;28;20023;-61
2022/08/31 01:33:50;;;;;;;12.60;5.57;;;;;;;;;;5010577;28;20061;-64
2022/08/31 01:36:37;;;;;;;10.88;5.45;;;;;;;;;;5016888;28;20040;-63
2022/08/31 01:39:23;;;;;;;11.93;5.88;;;;;;;;;;5004506;28;20033;-62
2022/08/31 01:42:08;;;;;;;12.25;6.15;;;;;;;;;;5013145;28;20026;-63
2022/08/31 01:44:54;;;;;;;13.75;6.75;;;;;;;;;;5001693;28;20031;-69
2022/08/31 01:47:40;;;;;;;14.13;6.72;;;;;;;;;;5001275;28;20496;-63
2022/08/31 01:50:25;;;;;;;11.38;6.65;;;;;;;;;;5011270;28;20499;-63
2022/08/31 01:53:11;;;;;;;15.50;5.97;;;;;;;;;;5008257;28;20053;-63
2022/08/31 01:55:57;;;;;;;14.43;6.47;;;;;;;;;;5013757;28;20436;-62
2022/08/31 01:58:42;;;;;;;9.95;5.43;;;;;;;;;;5016678;28;20045;-64
2022/08/31 02:01:30;;;;;;;13.68;7.00;;;;;;;;;;5006998;28;20027;-63
2022/08/31 02:04:16;;;;;;;12.30;5.80;;;;;;;;;;5009459;28;20041;-69
2022/08/31 02:07:02;;;;;;;13.60;6.53;;;;;;;;;;5012790;28;20509;-62
2022/08/31 02:09:47;;;;;;;10.45;5.60;;;;;;;;;;5005832;28;20030;-62
2022/08/31 02:12:33;;;;;;;10.45;5.57;;;;;;;;;;5008875;28;20317;-62
2022/08/31 02:15:19;;;;;;;10.82;6.18;;;;;;;;;;5006100;28;20026;-63
2022/08/31 02:18:05;;;;;;;11.35;6.22;;;;;;;;;;5007116;28;20172;-64
2022/08/31 02:20:50;;;;;;;10.68;5.43;;;;;;;;;;4999804;28;20381;-71
2022/08/31 02:23:36;;;;;;;10.88;5.88;;;;;;;;;;5009096;28;20065;-70
2022/08/31 02:26:21;;;;;;;11.82;6.43;;;;;;;;;;5001411;28;20484;-69
2022/08/31 02:29:07;;;;;;;13.20;7.13;;;;;;;;;;5004535;28;20030;-69
2022/08/31 02:31:53;;;;;;;9.52;6.43;;;;;;;;;;5003898;28;20069;-68
2022/08/31 02:34:39;;;;;;;11.15;6.00;;;;;;;;;;5009381;28;20080;-71
2022/08/31 02:37:25;;;;;;;11.60;5.72;;;;;;;;;;5005326;28;20034;-69
2022/08/31 02:40:10;;;;;;;13.02;5.75;;;;;;;;;;5001460;28;20048;-78
2022/08/31 02:42:56;;;;;;;9.90;6.13;;;;;;;;;;5005426;28;20023;-62
2022/08/31 02:45:42;;;;;;;9.85;6.22;;;;;;;;;;5011034;28;20042;-63
2022/08/31 02:48:27;;;;;;;10.80;5.78;;;;;;;;;;5004155;28;20052;-62
2022/08/31 02:51:13;;;;;;;8.80;5.93;;;;;;;;;;5004036;28;20023;-62
2022/08/31 02:53:58;;;;;;;10.43;6.47;;;;;;;;;;5006091;28;20126;-63
2022/08/31 02:56:44;;;;;;;11.00;6.35;;;;;;;;;;5001397;28;20033;-62
2022/08/31 02:59:29;;;;;;;8.98;5.60;;;;;;;;;;5007489;28;20489;-69
2022/08/31 03:02:16;;;;;;;10.15;6.03;;;;;;;;;;5001817;28;20101;-69
2022/08/31 03:05:02;;;;;;;11.27;6.35;;;;;;;;;;5012150;28;20481;-69
2022/08/31 03:07:51;;;;;;;13.02;6.10;;;;;;;;;;5010893;28;20093;-68
2022/08/31 03:10:36;;;;;;;10.48;6.15;;;;;;;;;;5004632;28;20114;-70
2022/08/31 03:13:22;;;;;;;10.57;6.13;;;;;;;;;;5005225;28;20025;-69
2022/08/31 03:16:08;;;;;;;10.60;6.20;;;;;;;;;;5007866;28;20416;-70
2022/08/31 03:18:53;;;;;;;8.93;5.97;;;;;;;;;;5004318;28;20496;-69
2022/08/31 03:21:39;;;;;;;12.07;6.90;;;;;;;;;;5005831;28;20034;-69
2022/08/31 03:24:24;;;;;;;10.60;5.40;;;;;;;;;;5008927;28;20369;-69
2022/08/31 03:27:10;;;;;;;10.15;5.75;;;;;;;;;;5000203;28;20067;-70
2022/08/31 03:29:55;;;;;;;12.88;7.43;;;;;;;;;;5002478;28;20056;-69
2022/08/31 03:32:41;;;;;;;9.52;5.88;;;;;;;;;;5010956;28;20031;-70
2022/08/31 03:35:27;;;;;;;9.32;6.30;;;;;;;;;;5006030;28;20101;-62
2022/08/31 03:38:14;;;;;;;9.00;5.80;;;;;;;;;;5002041;28;20434;-69
2022/08/31 03:41:00;;;;;;;8.50;6.32;;;;;;;;;;5001577;28;20018;-70
2022/08/31 03:43:46;;;;;;;11.10;6.45;;;;;;;;;;5009981;28;20468;-70
2022/08/31 03:46:32;;;;;;;11.77;7.18;;;;;;;;;;5006533;28;20046;-69
2022/08/31 03:49:18;;;;;;;9.63;6.22;;;;;;;;;;5001947;28;20026;-70
2022/08/31 03:52:03;;;;;;;12.23;6.32;;;;;;;;;;5002233;28;20061;-69
2022/08/31 03:54:49;;;;;;;11.27;6.90;;;;;;;;;;4988088;28;20049;-76
2022/08/31 03:57:35;;;;;;;10.35;6.30;;;;;;;;;;5004387;28;20033;-69
2022/08/31 04:00:20;;;;;;;10.23;6.07;;;;;;;;;;5009857;28;20034;-68
2022/08/31 04:03:06;;;;;;;11.05;6.50;;;;;;;;;;5004151;28;20165;-69
2022/08/31 04:05:51;;;;;;;10.18;6.40;;;;;;;;;;5006200;28;20060;-70
2022/08/31 04:08:38;;;;;;;8.85;5.88;;;;;;;;;;5008772;28;20381;-70
2022/08/31 04:11:25;;;;;;;9.68;6.00;;;;;;;;;;5002265;28;20625;-70
2022/08/31 04:14:11;;;;;;;9.40;6.70;;;;;;;;;;5006993;28;20038;-68
2022/08/31 04:16:57;;;;;;;13.30;6.72;;;;;;;;;;4998855;28;20505;-69
2022/08/31 04:19:43;;;;;;;9.48;5.80;;;;;;;;;;5008016;28;20139;-69
2022/08/31 04:22:28;;;;;;;9.23;5.68;;;;;;;;;;4998073;28;20062;-69
2022/08/31 04:25:14;;;;;;;8.85;5.97;;;;;;;;;;4989562;28;20045;-68
2022/08/31 04:28:00;;;;;;;8.82;6.15;;;;;;;;;;5006936;28;20030;-68
2022/08/31 04:30:47;;;;;;;12.88;6.38;;;;;;;;;;5005417;28;20057;-68
2022/08/31 04:33:32;;;;;;;10.25;6.60;;;;;;;;;;4995544;28;20552;-71
2022/08/31 04:36:20;;;;;;;10.00;6.43;;;;;;;;;;5007176;28;20041;-71
2022/08/31 04:39:06;;;;;;;9.18;6.63;;;;;;;;;;5005302;28;20095;-71
2022/08/31 04:41:52;;;;;;;9.23;6.30;;;;;;;;;;5006407;28;20030;-72
2022/08/31 04:44:37;;;;;;;8.38;5.50;;;;;;;;;;5003379;28;20036;-71
2022/08/31 04:47:23;;;;;;;10.88;6.38;;;;;;;;;;4997642;28;20101;-71
2022/08/31 04:50:09;;;;;;;12.50;6.90;;;;;;;;;;5001743;28;20029;-63
2022/08/31 04:52:54;;;;;;;9.35;6.50;;;;;;;;;;5009372;28;20131;-80
2022/08/31 04:55:41;;;;;;;10.70;6.38;;;;;;;;;;5004022;28;20121;-79
2022/08/31 04:58:26;;;;;;;8.75;6.32;;;;;;;;;;4998244;28;20034;-79
2022/08/31 05:01:13;;;;;;;13.52;7.45;;;;;;;;;;5003149;28;20060;-78
2022/08/31 05:03:59;;;;;;;12.65;7.45;;;;;;;;;;5001482;28;20101;-79
2022/08/31 05:06:45;;;;;;;9.32;7.25;;;;;;;;;;5001342;28;20145;-63
2022/08/31 05:09:31;;;;;;;11.73;6.80;;;;;;;;;;5006928;28;20061;-62
2022/08/31 05:12:16;;;;;;;10.95;7.30;;;;;;;;;;4999926;28;20084;-62
2022/08/31 05:15:02;;;;;;;11.77;6.40;;;;;;;;;;5006314;28;20042;-62
2022/08/31 05:17:47;;;;;;;9.57;7.07;;;;;;;;;;5002531;28;20508;-62
2022/08/31 05:20:33;;;;;;;16.80;7.18;;;;;;;;;;5001668;28;20038;-61
2022/08/31 05:23:19;;;;;;;10.18;7.38;;;;;;;;;;5011915;28;20030;-62
2022/08/31 05:26:05;;;;;;;9.68;6.50;;;;;;;;;;4999743;28;20101;-72
2022/08/31 05:28:51;;;;;;;10.88;6.97;;;;;;;;;;4998322;28;20034;-60
2022/08/31 05:31:37;;;;;;;8.85;6.57;;;;;;;;;;5000806;28;20084;-60
2022/08/31 05:34:22;;;;;;;10.75;6.63;;;;;;;;;;5005226;28;20062;-61
2022/08/31 05:37:08;;;;;;;8.93;6.35;;;;;;;;;;4992628;28;20060;-67
2022/08/31 05:39:53;;;;;;;11.60;7.38;;;;;;;;;;5006946;28;20372;-61
2022/08/31 05:42:39;;;;;;;9.45;6.18;;;;;;;;;;4998020;28;20104;-62
2022/08/31 05:45:24;;;;;;;11.68;7.10;;;;;;;;;;5008971;28;20034;-66
2022/08/31 05:48:10;;;;;;;10.40;6.60;;;;;;;;;;5004505;28;20117;-70
2022/08/31 05:50:58;;;;;;;12.80;7.50;;;;;;;;;;4992137;28;20061;-70
2022/08/31 05:53:45;;;;;;;9.52;6.05;;;;;;;;;;4998699;28;20373;-70
2022/08/31 05:56:30;;;;;;;10.13;6.07;;;;;;;;;;5011147;28;20029;-70
2022/08/31 05:59:16;;;;;;;9.82;6.65;;;;;;;;;;5005651;28;20037;-70
2022/08/31 06:02:03;;;;;;;10.63;6.22;;;;;;;;;;5005471;28;20457;-70
2022/08/31 06:04:50;;;;;;;10.48;6.97;;;;;;;;;;5000603;28;20038;-66
2022/08/31 06:07:36;;;;;;;8.70;6.45;;;;;;;;;;4998254;28;20029;-64
2022/08/31 06:10:21;;;;;;;9.77;5.97;;;;;;;;;;4989002;28;20027;-64
2022/08/31 06:13:07;;;;;;;8.18;5.57;;;;;;;;;;5000512;28;20038;-64
2022/08/31 06:15:53;;;;;;;8.77;5.72;;;;;;;;;;5001651;28;20032;-65
2022/08/31 06:18:48;;;;;;;9.95;6.38;;;;;;;;;;5005391;28;20065;-62
2022/08/31 06:21:35;;;;;;;7.97;5.85;;;;;;;;;;5002245;28;20069;-74
2022/08/31 06:24:21;;;;;;;10.25;7.15;;;;;;;;;;4985462;28;20030;-70
2022/08/31 06:27:07;;;;;;;9.15;6.15;;;;;;;;;;5006196;28;20057;-70
2022/08/31 06:29:52;;;;;;;8.68;6.18;;;;;;;;;;4999286;28;20042;-70
2022/08/31 06:32:38;;;;;;;9.50;6.90;;;;;;;;;;4999799;28;20037;-70
2022/08/31 06:35:23;;;;;;;10.98;6.80;;;;;;;;;;5002199;28;20026;-73
2022/08/31 06:38:09;;;;;;;12.32;6.80;;;;;;;;;;4999122;28;20124;-71
2022/08/31 06:40:55;;;;;;;9.98;6.40;;;;;;;;;;5004155;28;20030;-75
2022/08/31 06:43:40;;;;;;;10.52;7.25;;;;;;;;;;4999692;28;20113;-74
2022/08/31 06:46:26;;;;;;;10.57;6.55;;;;;;;;;;5001905;28;20030;-77
2022/08/31 06:49:12;;;;;;;9.75;6.95;;;;;;;;;;4997655;28;20034;-75
2022/08/31 06:51:59;;;;;;;9.05;6.53;;;;;;;;;;5003756;28;20032;-75
2022/08/31 06:54:45;;;;;;;9.55;7.13;;;;;;;;;;5004665;28;20488;-74
2022/08/31 06:57:30;;;;;;;9.48;6.15;;;;;;;;;;5002998;28;20032;-72
2022/08/31 07:00:16;;;;;;;11.73;7.28;;;;;;;;;;4998495;28;20038;-72
2022/08/31 07:03:21;;;;;;;9.65;6.00;;;;;;;;;;5005569;28;20026;-72
2022/08/31 07:06:08;;;;;;;9.95;7.07;;;;;;;;;;4999524;28;20472;-71
2022/08/31 07:08:59;;;;;;;11.13;6.57;;;;;;;;;;4999700;28;20019;-76
2022/08/31 07:11:46;;;;;;;10.57;7.00;;;;;;;;;;4996611;28;20416;-74
2022/08/31 07:14:32;;;;;;;11.95;7.50;;;;;;;;;;4987456;28;20041;-72
2022/08/31 07:17:18;;;;;;;8.52;6.40;;;;;;;;;;5001279;28;20048;-74
2022/08/31 07:20:03;;;;;;;10.48;7.38;;;;;;;;;;5002786;28;20388;-70
2022/08/31 07:22:49;;;;;;;10.63;6.47;;;;;;;;;;5000070;28;20033;-72
2022/08/31 07:25:35;;;;;;;8.35;6.20;;;;;;;;;;5000931;28;20026;-74
2022/08/31 07:28:23;;;;;;;8.85;6.15;;;;;;;;;;4989539;28;20388;-74
2022/08/31 07:31:10;;;;;;;8.60;6.38;;;;;;;;;;5003725;28;20030;-74
2022/08/31 07:33:56;;;;;;;10.55;6.85;;;;;;;;;;4996821;28;20469;-78
2022/08/31 07:42:50;;;;;;;11.43;6.10;;;;;;;;;;4998750;28;20030;-74
2022/08/31 07:45:36;;;;;;;10.88;6.57;;;;;;;;;;4990882;28;20053;-73
2022/08/31 07:48:22;;;;;;;10.30;5.97;;;;;;;;;;5000497;28;20034;-73
2022/08/31 07:51:08;;;;;;;11.23;6.05;;;;;;;;;;4985358;28;20100;-73
2022/08/31 07:53:54;;;;;;;11.52;6.15;;;;;;;;;;5006880;28;20029;-71
2022/08/31 07:56:42;;;;;;;9.88;6.28;;;;;;;;;;5002248;28;20034;-71
2022/08/31 07:59:28;;;;;;;9.13;6.15;;;;;;;;;;4999066;28;20034;-69
2022/08/31 08:02:15;;;;;;;12.23;6.25;;;;;;;;;;4999857;28;20022;-76
2022/08/31 08:05:01;;;;;;;11.73;6.00;;;;;;;;;;5001546;28;20042;-69
2022/08/31 08:07:48;;;;;;;9.57;6.43;;;;;;;;;;5005000;28;20085;-68
2022/08/31 08:10:37;;;;;;;7.85;5.78;;;;;;;;;;5007573;28;20026;-73
2022/08/31 08:13:23;;;;;;;9.75;6.30;;;;;;;;;;5002212;28;20028;-77
2022/08/31 08:16:09;;;;;;;10.73;6.05;;;;;;;;;;4998486;28;20493;-72
2022/08/31 08:18:55;;;;;;;8.73;5.85;;;;;;;;;;5000438;28;20065;-72
2022/08/31 08:21:42;;;;;;;11.23;6.93;;;;;;;;;;5002061;28;20029;-71
2022/08/31 08:24:29;;;;;;;12.45;6.70;;;;;;;;;;4998221;28;20058;-72
2022/08/31 08:27:14;;;;;;;10.75;6.18;;;;;;;;;;5000326;28;20562;-72
2022/08/31 08:30:00;;;;;;;9.00;6.18;;;;;;;;;;4994433;28;20026;-66
2022/08/31 08:32:46;;;;;;;11.27;6.38;;;;;;;;;;4995401;28;20040;-71
2022/08/31 08:35:33;;;;;;;10.68;6.65;;;;;;;;;;5002924;28;20097;-73
2022/08/31 08:38:19;;;;;;;8.02;6.25;;;;;;;;;;4998072;28;20026;-74
2022/08/31 08:41:06;;;;;;;9.05;6.38;;;;;;;;;;4997391;28;20109;-73
2022/08/31 08:43:53;;;;;;;12.20;6.75;;;;;;;;;;4996986;28;20091;-71
2022/08/31 08:46:39;;;;;;;11.85;7.82;;;;;;;;;;5001294;28;20042;-74
2022/08/31 08:49:27;;;;;;;8.90;6.25;;;;;;;;;;4999602;28;20027;-62
2022/08/31 08:52:23;;;;;;;12.32;7.05;;;;;;;;;;5003527;28;20037;-63
2022/08/31 08:55:11;;;;;;;12.75;7.15;;;;;;;;;;5001420;28;20477;-62
2022/08/31 08:57:56;;;;;;;11.70;6.18;;;;;;;;;;5004672;28;20493;-63
2022/08/31 09:00:45;;;;;;;10.18;6.82;;;;;;;;;;5002503;28;20041;-63
2022/08/31 09:03:38;;;;;;;9.55;6.55;;;;;;;;;;4997535;28;20030;-64
2022/08/31 09:06:38;;;;;;;12.63;7.53;;;;;;;;;;5010062;28;20044;-76
2022/08/31 09:09:27;;;;;;;8.60;6.40;;;;;;;;;;4991675;28;20022;-70
2022/08/31 09:12:21;;;;;;;10.97;6.97;;;;;;;;;;4993299;28;20543;-73
2022/08/31 09:15:31;;;;;;;9.77;6.80;;;;;;;;;;4998069;28;20435;-72
2022/08/31 09:18:33;;;;;;;9.85;6.93;;;;;;;;;;4998388;28;20034;-72
2022/08/31 09:21:28;;;;;;;14.57;7.70;;;;;;;;;;4983458;28;20046;-71
2022/08/31 09:24:15;;;;;;;11.13;7.13;;;;;;;;;;5006040;28;20033;-72
2022/08/31 09:27:17;;;;;;;11.60;7.40;;;;;;;;;;5001672;28;20037;-72
2022/08/31 09:30:04;;;;;;;10.80;6.88;;;;;;;;;;5000192;28;20045;-73
2022/08/31 09:32:55;;;;;;;9.93;7.13;;;;;;;;;;5001843;28;20389;-72
2022/08/31 09:35:41;;;;;;;10.73;7.07;;;;;;;;;;5006664;28;20393;-73
2022/08/31 09:38:29;;;;;;;11.35;7.22;;;;;;;;;;4999251;28;20030;-73
2022/08/31 09:41:29;;;;;;;9.30;6.72;;;;;;;;;;5003258;28;20026;-71
2022/08/31 09:44:20;;;;;;;9.38;7.20;;;;;;;;;;5002085;28;20049;-77
2022/08/31 09:47:13;;;;;;;11.30;7.38;;;;;;;;;;5002654;28;20481;-72
2022/08/31 09:49:59;;;;;;;11.00;7.60;;;;;;;;;;5004635;28;20046;-73
2022/08/31 09:56:02;;;;;;;13.45;8.25;;;;;;;;;;5004360;28;20057;-72
2022/08/31 09:58:54;;;;;;;12.63;7.57;;;;;;;;;;5004897;28;20049;-73
2022/08/31 10:01:43;;;;;;;11.20;8.23;;;;;;;;;;5001577;28;20038;-78
2022/08/31 10:04:31;;;;;;;12.32;7.88;;;;;;;;;;4997373;28;20101;-72
2022/08/31 10:07:28;;;;;;;11.80;7.75;;;;;;;;;;4996666;28;20117;-70
2022/08/31 10:10:23;;;;;;;11.73;7.90;;;;;;;;;;4985529;28;20033;-70
2022/08/31 10:13:12;;;;;;;13.32;7.28;;;;;;;;;;5003395;28;20128;-70
2022/08/31 10:16:00;;;;;;;11.57;7.88;;;;;;;;;;4998489;28;20397;-71
2022/08/31 10:18:51;;;;;;;11.02;7.18;;;;;;;;;;5008026;28;20124;-70
2022/08/31 10:21:52;;;;;;;11.75;7.38;;;;;;;;;;5007611;28;20033;-70
2022/08/31 10:24:44;;;;;;;12.35;7.40;;;;;;;;;;5005787;28;20026;-74
2022/08/31 10:27:37;;;;;;;11.00;6.38;;;;;;;;;;5009159;28;20108;-74
2022/08/31 10:30:26;;;;;;;9.90;5.95;;;;;;;;;;4996302;28;20049;-73
2022/08/31 10:33:15;;;;;;;11.02;7.40;;;;;;;;;;4995854;28;20493;-72
2022/08/31 10:36:03;;;;;;;12.57;7.05;;;;;;;;;;5004438;28;20034;-73
2022/08/31 10:38:49;;;;;;;9.65;6.38;;;;;;;;;;5003563;28;20045;-74
2022/08/31 10:41:39;;;;;;;10.23;6.75;;;;;;;;;;4997376;28;20516;-70
2022/08/31 10:44:35;;;;;;;9.75;7.10;;;;;;;;;;4997745;28;20120;-70
2022/08/31 10:47:22;;;;;;;13.95;6.63;;;;;;;;;;5001339;28;20032;-70
2022/08/31 10:50:09;;;;;;;11.63;7.07;;;;;;;;;;5006529;28;20065;-74
2022/08/31 10:53:04;;;;;;;9.60;6.70;;;;;;;;;;5007930;28;20029;-69
2022/08/31 10:56:13;;;;;;;10.38;7.18;;;;;;;;;;4994126;28;20038;-76
2022/08/31 10:59:18;;;;;;;15.57;7.23;;;;;;;;;;4994448;28;20046;-78
2022/08/31 11:02:23;;;;;;;14.10;6.50;;;;;;;;;;4980722;28;20073;-77
2022/08/31 11:05:11;;;;;;;11.90;6.63;;;;;;;;;;5009397;28;20034;-78
2022/08/31 11:08:03;;;;;;;9.10;6.68;;;;;;;;;;4995319;28;20114;-77
2022/08/31 11:10:50;;;;;;;12.50;6.80;;;;;;;;;;4993545;28;20045;-73
2022/08/31 11:13:42;;;;;;;9.15;6.30;;;;;;;;;;4981329;28;20032;-77
2022/08/31 11:16:46;;;;;;;12.73;6.78;;;;;;;;;;5005803;28;20543;-76
2022/08/31 11:19:50;;;;;;;13.07;7.28;;;;;;;;;;4997535;28;20046;-71
2022/08/31 11:22:36;;;;;;;11.15;7.22;;;;;;;;;;5000864;28;20108;-73
2022/08/31 11:25:46;;;;;;;11.30;6.38;;;;;;;;;;4988435;28;20034;-72
2022/08/31 11:29:01;;;;;;;11.60;7.10;;;;;;;;;;4992750;28;20420;-71
2022/08/31 11:31:47;;;;;;;9.38;6.18;;;;;;;;;;4953185;28;20034;-73
2022/08/31 11:34:41;;;;;;;10.68;6.90;;;;;;;;;;4998926;28;20089;-71
2022/08/31 11:37:51;;;;;;;9.50;7.18;;;;;;;;;;5000960;28;20447;-80
2022/08/31 11:40:43;;;;;;;12.00;6.90;;;;;;;;;;4989884;28;20508;-80
2022/08/31 11:43:32;;;;;;;11.23;6.78;;;;;;;;;;4984766;28;20076;-80
2022/08/31 11:46:24;;;;;;;10.03;6.33;;;;;;;;;;4997636;28;20394;-81
2022/08/31 11:49:33;;;;;;;12.68;6.78;;;;;;;;;;5007428;28;20108;-78
2022/08/31 11:52:37;;;;;;;10.70;7.32;;;;;;;;;;5004217;28;20060;-71
2022/08/31 11:55:26;;;;;;;9.60;7.20;;;;;;;;;;5002247;28;20401;-76
2022/08/31 11:58:16;;;;;;;14.75;7.90;;;;;;;;;;4984754;28;20060;-77
2022/08/31 12:01:10;;;;;;;13.48;8.10;;;;;;;;;;4999913;28;20054;-80
2022/08/31 12:04:02;;;;;;;12.38;6.93;;;;;;;;;;5002124;28;20142;-82
2022/08/31 12:06:47;;;;;;;11.23;7.32;;;;;;;;;;5000248;28;20037;-79
2022/08/31 12:09:44;;;;;;;12.55;7.40;;;;;;;;;;4996623;28;20022;-71
2022/08/31 12:12:30;;;;;;;14.35;6.65;;;;;;;;;;4999439;28;20034;-78
2022/08/31 12:15:41;;;;;;;9.18;6.88;;;;;;;;;;5004052;28;20034;-79
2022/08/31 12:18:50;;;;;;;14.95;7.88;;;;;;;;;;5005888;28;20068;-78
2022/08/31 12:25:16;;;;;;;16.38;8.75;;;;;;;;;;5008122;28;20041;-78
2022/08/31 12:28:06;;;;;;;9.85;6.55;;;;;;;;;;4977655;28;20438;-72
2022/08/31 12:30:53;;;;;;;11.13;7.18;;;;;;;;;;4985887;28;20045;-69
2022/08/31 12:33:48;;;;;;;9.63;6.57;;;;;;;;;;5005180;28;20061;-70
2022/08/31 12:36:35;;;;;;;9.60;6.40;;;;;;;;;;4997174;28;20029;-70
2022/08/31 12:39:22;;;;;;;14.00;7.22;;;;;;;;;;4996454;28;20037;-69
2022/08/31 12:42:09;;;;;;;12.68;7.07;;;;;;;;;;5005796;28;20388;-69
2022/08/31 12:44:55;;;;;;;10.35;6.03;;;;;;;;;;4998189;28;20472;-70
2022/08/31 12:47:40;;;;;;;10.80;6.05;;;;;;;;;;4999811;28;20048;-70
2022/08/31 12:50:43;;;;;;;10.30;6.68;;;;;;;;;;5001164;28;20101;-70
2022/08/31 12:53:43;;;;;;;9.43;6.18;;;;;;;;;;4994599;28;20480;-70
2022/08/31 12:56:52;;;;;;;11.80;6.32;;;;;;;;;;5003603;28;20042;-72
2022/08/31 12:59:58;;;;;;;8.65;6.22;;;;;;;;;;4982961;28;20127;-72
2022/08/31 13:02:45;;;;;;;10.40;6.15;;;;;;;;;;4997651;28;20037;-71
2022/08/31 13:05:33;;;;;;;10.95;6.45;;;;;;;;;;4991267;28;20026;-70
2022/08/31 13:08:22;;;;;;;9.80;7.28;;;;;;;;;;5008333;28;20037;-75
2022/08/31 13:11:07;;;;;;;;;;;;;;;;;;4987009;28;20113;-73
2022/08/31 13:14:05;;;;;;;14.80;7.43;;;;;;;;;;4993306;28;19914;-75
2022/08/31 13:16:57;;;;;;;9.27;6.75;;;;;;;;;;4998693;28;20057;-73
2022/08/31 13:19:51;;;;;;;13.82;7.65;;;;;;;;;;4995737;28;20050;-73
2022/08/31 13:22:41;;;;;;;10.18;6.47;;;;;;;;;;4985417;28;20453;-75
2022/08/31 13:25:34;;;;;;;8.35;5.97;;;;;;;;;;5008214;28;20029;-71
2022/08/31 13:28:24;;;;;;;12.65;6.70;;;;;;;;;;4985356;28;20412;-73
2022/08/31 13:31:15;;;;;;;12.85;6.97;;;;;;;;;;4979745;28;20037;-75
2022/08/31 13:34:04;;;;;;;10.68;7.18;;;;;;;;;;5004612;28;20337;-76
2022/08/31 13:36:57;;;;;;;8.25;6.57;;;;;;;;;;5003221;28;20034;-74
2022/08/31 13:39:44;;;;;;;14.13;7.72;;;;;;;;;;5001296;28;20124;-77
2022/08/31 13:42:35;;;;;;;9.60;6.38;;;;;;;;;;4997993;28;20038;-72
2022/08/31 13:45:31;;;;;;;13.45;7.20;;;;;;;;;;4997508;28;20385;-80
2022/08/31 13:48:27;;;;;;;15.32;7.25;;;;;;;;;;5004592;28;20065;-81
2022/08/31 13:51:16;;;;;;;15.25;7.60;;;;;;;;;;5001473;28;20111;-77
2022/08/31 13:54:05;;;;;;;10.65;6.88;;;;;;;;;;5001523;28;20034;-78
2022/08/31 13:56:57;;;;;;;13.75;6.72;;;;;;;;;;5007255;28;20065;-78
2022/08/31 13:59:43;;;;;;;9.13;6.40;;;;;;;;;;4998573;28;20100;-73
2022/08/31 14:02:30;;;;;;;10.30;6.55;;;;;;;;;;4994457;28;20122;-73
2022/08/31 14:05:27;;;;;;;10.65;6.35;;;;;;;;;;5008005;28;20057;-78
2022/08/31 14:08:16;;;;;;;9.75;6.90;;;;;;;;;;5003638;28;20439;-76
2022/08/31 14:11:09;;;;;;;11.18;6.35;;;;;;;;;;5006735;28;20067;-76
2022/08/31 14:14:03;;;;;;;11.18;6.53;;;;;;;;;;4995485;28;20474;-75
2022/08/31 14:16:55;;;;;;;12.77;6.25;;;;;;;;;;5000560;28;20555;-75
2022/08/31 14:19:42;;;;;;;12.18;7.13;;;;;;;;;;5003261;28;20113;-78
2022/08/31 14:22:30;;;;;;;9.35;5.57;;;;;;;;;;4986903;28;20066;-69
2022/08/31 14:25:18;;;;;;;16.40;7.03;;;;;;;;;;4990785;28;20053;-69
2022/08/31 14:28:05;;;;;;;15.00;7.03;;;;;;;;;;4992800;28;20229;-70
2022/08/31 14:30:52;;;;;;;9.77;6.60;;;;;;;;;;5006602;28;20022;-71
2022/08/31 14:33:39;;;;;;;10.60;6.40;;;;;;;;;;5006330;28;20109;-70
2022/08/31 14:36:24;;;;;;;11.75;6.65;;;;;;;;;;4994795;28;20460;-70
2022/08/31 14:39:10;;;;;;;8.45;6.13;;;;;;;;;;5003229;28;20042;-71
2022/08/31 14:42:17;;;;;;;10.15;5.68;;;;;;;;;;5005204;28;20038;-76
2022/08/31 14:45:04;;;;;;;12.40;7.25;;;;;;;;;;4993860;28;20027;-79
2022/08/31 14:47:51;;;;;;;10.10;6.03;;;;;;;;;;5006964;28;20377;-77
2022/08/31 14:50:36;;;;;;;9.82;5.65;;;;;;;;;;4991520;28;20025;-78
2022/08/31 14:53:22;;;;;;;11.80;6.32;;;;;;;;;;5004799;28;20033;-77
2022/08/31 14:56:17;;;;;;;11.60;6.25;;;;;;;;;;5006019;28;20026;-77
2022/08/31 14:59:04;;;;;;;11.20;6.68;;;;;;;;;;5008963;28;20468;-73
2022/08/31 15:01:50;;;;;;;11.75;5.75;;;;;;;;;;4998629;28;20037;-73
2022/08/31 15:04:35;;;;;;;8.90;5.53;;;;;;;;;;5001926;28;20082;-72
2022/08/31 15:07:21;;;;;;;11.90;6.38;;;;;;;;;;4990159;28;20109;-72
2022/08/31 15:10:10;;;;;;;11.90;6.03;;;;;;;;;;4997579;28;20462;-73
2022/08/31 15:12:55;;;;;;;10.70;6.32;;;;;;;;;;4998465;28;20026;-74
2022/08/31 15:15:41;;;;;;;9.52;6.15;;;;;;;;;;5005553;28;20370;-75
2022/08/31 15:18:27;;;;;;;10.60;6.07;;;;;;;;;;4984677;28;20160;-78
2022/08/31 15:21:13;;;;;;;9.55;5.93;;;;;;;;;;4998377;28;20056;-78
2022/08/31 15:23:58;;;;;;;14.48;5.93;;;;;;;;;;4983746;28;20053;-76
2022/08/31 15:26:45;;;;;;;11.85;5.80;;;;;;;;;;5003735;28;20037;-77
2022/08/31 15:29:32;;;;;;;10.23;5.55;;;;;;;;;;5009980;28;20033;-79
2022/08/31 15:32:19;;;;;;;8.68;5.60;;;;;;;;;;4999106;28;20040;-79
2022/08/31 15:35:05;;;;;;;9.00;5.22;;;;;;;;;;5003513;28;20461;-71
2022/08/31 15:37:59;;;;;;;7.57;4.30;;;;;;;;;;5001479;28;20032;-72
2022/08/31 15:40:45;;;;;;;6.63;3.90;;;;;;;;;;4999708;28;20034;-72
2022/08/31 15:43:31;;;;;;;5.47;3.70;;;;;;;;;;5004257;28;20045;-71
2022/08/31 15:48:40;;;;;;;7.85;3.92;;;;;;;;;;5001821;28;20045;-74
2022/08/31 15:49:24;;;;;;;6.07;3.45;;;;;;;;;;4997397;28;20382;-71
2022/08/31 15:52:10;;;;;;;8.88;4.53;;;;;;;;;;5004924;28;20022;-64
2022/08/31 15:54:56;;;;;;;10.70;4.78;;;;;;;;;;4996026;28;20031;-69
2022/08/31 15:57:42;;;;;;;9.05;4.70;;;;;;;;;;5009198;28;20018;-78
2022/08/31 16:00:31;;;;;;;7.28;3.90;;;;;;;;;;5003852;28;20073;-83
2022/08/31 16:03:16;;;;;;;11.32;4.32;;;;;;;;;;5009730;28;20433;-79
2022/08/31 16:06:04;;;;;;;5.57;4.03;;;;;;;;;;4997618;28;20515;-77
2022/08/31 16:08:54;;;;;;;8.50;4.03;;;;;;;;;;4998048;28;20083;-80
2022/08/31 16:11:39;;;;;;;6.95;3.92;;;;;;;;;;4995759;28;20048;-73
2022/08/31 16:14:25;;;;;;;6.80;4.22;;;;;;;;;;5004416;28;20030;-72
2022/08/31 16:17:11;;;;;;;5.93;4.05;;;;;;;;;;5006937;28;20393;-74
2022/08/31 16:19:57;;;;;;;7.35;4.10;;;;;;;;;;4987080;28;20034;-73
2022/08/31 16:22:43;;;;;;;7.78;4.20;;;;;;;;;;5003403;28;20345;-76
2022/08/31 16:25:29;;;;;;;7.28;4.63;;;;;;;;;;5007525;28;20151;-73
2022/08/31 16:28:19;;;;;;;6.65;4.68;;;;;;;;;;5009993;28;20127;-72
2022/08/31 16:31:09;;;;;;;6.07;4.28;;;;;;;;;;5005303;28;20445;-69
2022/08/31 16:33:54;;;;;;;8.32;4.80;;;;;;;;;;4997742;28;20467;-71
2022/08/31 16:36:41;;;;;;;5.90;3.85;;;;;;;;;;5001184;28;20022;-74
2022/08/31 16:39:26;;;;;;;9.38;4.70;;;;;;;;;;4996016;28;20034;-73
2022/08/31 16:42:12;;;;;;;6.28;4.95;;;;;;;;;;4999387;28;20050;-71
2022/08/31 16:44:59;;;;;;;8.45;5.00;;;;;;;;;;4995234;28;20042;-70
2022/08/31 16:47:44;;;;;;;6.40;4.03;;;;;;;;;;5006945;28;20381;-70
2022/08/31 16:50:30;;;;;;;7.47;4.28;;;;;;;;;;5000186;28;20030;-67
2022/08/31 16:53:16;;;;;;;7.15;3.75;;;;;;;;;;5006479;28;20018;-67
2022/08/31 16:56:02;;;;;;;7.10;4.88;;;;;;;;;;5002357;28;20034;-68
2022/08/31 16:58:49;;;;;;;9.18;5.13;;;;;;;;;;4993827;28;20443;-68